sensor_id;sensor_type;location;lat;lon;timestamp;P1;durP1;ratioP1;P2;durP2;ratioP2
44973;SDS011;60981;50.720;11.342;2024-01-07T00:00:00;11.88;;;7.10;;
44973;SDS011;60981;50.720;11.342;2024-01-07T00:01:02;7.68;;;4.63;;
44973;SDS011;60981;50.720;11.342;2024-01-07T00:02:05;8.10;;;3.97;;
44973;SDS011;60981;50.720;11.342;2024-01-07T00:03:11;7.90;;;4.70;;
44973;SDS011;60981;50.720;11.342;2024-01-07T00:04:16;8.63;;;5.57;;
44973;SDS011;60981;50.720;11.342;2024-01-07T00:05:19;15.77;;;6.05;;
44973;SDS011;60981;50.720;11.342;2024-01-07T00:06:23;14.23;;;6.63;;
44973;SDS011;60981;50.720;11.342;2024-01-07T00:07:28;7.97;;;4.32;;
44973;SDS011;60981;50.720;11.342;2024-01-07T00:08:32;12.65;;;5.03;;
44973;SDS011;60981;50.720;11.342;2024-01-07T00:09:38;12.68;;;5.78;;
44973;SDS011;60981;50.720;11.342;2024-01-07T00:10:40;12.88;;;6.60;;
44973;SDS011;60981;50.720;11.342;2024-01-07T00:11:45;7.38;;;4.72;;
44973;SDS011;60981;50.720;11.342;2024-01-07T00:12:48;14.02;;;5.93;;
44973;SDS011;60981;50.720;11.342;2024-01-07T00:13:54;8.35;;;5.40;;
44973;SDS011;60981;50.720;11.342;2024-01-07T00:14:56;10.57;;;5.40;;
44973;SDS011;60981;50.720;11.342;2024-01-07T00:15:58;12.85;;;6.30;;
44973;SDS011;60981;50.720;11.342;2024-01-07T00:17:03;8.65;;;4.88;;
44973;SDS011;60981;50.720;11.342;2024-01-07T00:18:05;11.00;;;6.00;;
44973;SDS011;60981;50.720;11.342;2024-01-07T00:19:15;10.10;;;6.18;;
44973;SDS011;60981;50.720;11.342;2024-01-07T00:20:18;11.68;;;6.20;;
44973;SDS011;60981;50.720;11.342;2024-01-07T00:21:20;10.60;;;5.88;;
44973;SDS011;60981;50.720;11.342;2024-01-07T00:22:22;13.95;;;6.93;;
44973;SDS011;60981;50.720;11.342;2024-01-07T00:23:24;9.68;;;5.70;;
44973;SDS011;60981;50.720;11.342;2024-01-07T00:24:31;13.95;;;5.82;;
44973;SDS011;60981;50.720;11.342;2024-01-07T00:25:33;12.07;;;6.67;;
44973;SDS011;60981;50.720;11.342;2024-01-07T00:26:37;9.70;;;5.93;;
44973;SDS011;60981;50.720;11.342;2024-01-07T00:27:40;10.63;;;5.43;;
44973;SDS011;60981;50.720;11.342;2024-01-07T00:28:43;13.63;;;6.30;;
44973;SDS011;60981;50.720;11.342;2024-01-07T00:29:45;11.52;;;5.90;;
44973;SDS011;60981;50.720;11.342;2024-01-07T00:30:49;12.63;;;7.07;;
44973;SDS011;60981;50.720;11.342;2024-01-07T00:31:52;11.13;;;5.78;;
44973;SDS011;60981;50.720;11.342;2024-01-07T00:32:55;11.65;;;6.40;;
44973;SDS011;60981;50.720;11.342;2024-01-07T00:33:57;15.10;;;7.75;;
44973;SDS011;60981;50.720;11.342;2024-01-07T00:34:59;13.20;;;7.05;;
44973;SDS011;60981;50.720;11.342;2024-01-07T00:36:06;10.93;;;5.88;;
44973;SDS011;60981;50.720;11.342;2024-01-07T00:37:08;7.15;;;4.97;;
44973;SDS011;60981;50.720;11.342;2024-01-07T00:38:12;13.05;;;6.10;;
44973;SDS011;60981;50.720;11.342;2024-01-07T00:39:14;12.30;;;6.45;;
44973;SDS011;60981;50.720;11.342;2024-01-07T00:40:15;14.90;;;5.88;;
44973;SDS011;60981;50.720;11.342;2024-01-07T00:41:18;15.32;;;5.85;;
44973;SDS011;60981;50.720;11.342;2024-01-07T00:42:21;13.98;;;7.00;;
44973;SDS011;60981;50.720;11.342;2024-01-07T00:43:24;15.15;;;7.45;;
44973;SDS011;60981;50.720;11.342;2024-01-07T00:44:28;21.77;;;6.60;;
44973;SDS011;60981;50.720;11.342;2024-01-07T00:45:37;8.43;;;5.97;;
44973;SDS011;60981;50.720;11.342;2024-01-07T00:46:40;11.55;;;7.13;;
44973;SDS011;60981;50.720;11.342;2024-01-07T00:47:42;11.27;;;6.72;;
44973;SDS011;60981;50.720;11.342;2024-01-07T00:48:44;12.73;;;6.50;;
44973;SDS011;60981;50.720;11.342;2024-01-07T00:49:46;9.95;;;6.00;;
44973;SDS011;60981;50.720;11.342;2024-01-07T00:50:49;15.13;;;7.60;;
44973;SDS011;60981;50.720;11.342;2024-01-07T00:51:52;12.13;;;8.18;;
44973;SDS011;60981;50.720;11.342;2024-01-07T00:52:56;9.33;;;5.40;;
44973;SDS011;60981;50.720;11.342;2024-01-07T00:54:00;12.73;;;6.07;;
44973;SDS011;60981;50.720;11.342;2024-01-07T00:55:06;10.38;;;7.22;;
44973;SDS011;60981;50.720;11.342;2024-01-07T00:56:10;10.32;;;5.97;;
44973;SDS011;60981;50.720;11.342;2024-01-07T00:57:16;10.65;;;7.28;;
44973;SDS011;60981;50.720;11.342;2024-01-07T01:02:13;9.95;;;5.05;;
44973;SDS011;60981;50.720;11.342;2024-01-07T01:03:18;16.77;;;6.78;;
44973;SDS011;60981;50.720;11.342;2024-01-07T01:04:20;10.33;;;6.27;;
44973;SDS011;60981;50.720;11.342;2024-01-07T01:05:23;17.15;;;8.38;;
44973;SDS011;60981;50.720;11.342;2024-01-07T01:06:30;11.82;;;6.72;;
44973;SDS011;60981;50.720;11.342;2024-01-07T01:07:32;14.02;;;7.13;;
44973;SDS011;60981;50.720;11.342;2024-01-07T01:08:36;9.43;;;6.32;;
44973;SDS011;60981;50.720;11.342;2024-01-07T01:09:38;11.65;;;5.93;;
44973;SDS011;60981;50.720;11.342;2024-01-07T01:10:41;8.00;;;5.40;;
44973;SDS011;60981;50.720;11.342;2024-01-07T01:11:47;13.23;;;6.00;;
44973;SDS011;60981;50.720;11.342;2024-01-07T01:12:51;9.13;;;7.07;;
44973;SDS011;60981;50.720;11.342;2024-01-07T01:13:55;11.70;;;6.65;;
44973;SDS011;60981;50.720;11.342;2024-01-07T01:14:58;14.77;;;5.97;;
44973;SDS011;60981;50.720;11.342;2024-01-07T01:16:05;12.52;;;6.05;;
44973;SDS011;60981;50.720;11.342;2024-01-07T01:17:08;14.05;;;6.78;;
44973;SDS011;60981;50.720;11.342;2024-01-07T01:18:11;12.35;;;6.43;;
44973;SDS011;60981;50.720;11.342;2024-01-07T01:19:13;10.77;;;5.75;;
44973;SDS011;60981;50.720;11.342;2024-01-07T01:20:16;9.93;;;5.88;;
44973;SDS011;60981;50.720;11.342;2024-01-07T01:21:20;10.25;;;6.10;;
44973;SDS011;60981;50.720;11.342;2024-01-07T01:22:23;9.07;;;5.72;;
44973;SDS011;60981;50.720;11.342;2024-01-07T01:23:27;9.23;;;6.53;;
44973;SDS011;60981;50.720;11.342;2024-01-07T01:24:29;16.73;;;6.75;;
44973;SDS011;60981;50.720;11.342;2024-01-07T01:25:35;10.48;;;5.53;;
44973;SDS011;60981;50.720;11.342;2024-01-07T01:26:42;13.77;;;6.60;;
44973;SDS011;60981;50.720;11.342;2024-01-07T01:27:44;9.63;;;5.93;;
44973;SDS011;60981;50.720;11.342;2024-01-07T01:28:48;10.25;;;6.57;;
44973;SDS011;60981;50.720;11.342;2024-01-07T01:29:53;11.10;;;6.47;;
44973;SDS011;60981;50.720;11.342;2024-01-07T01:30:58;16.02;;;6.63;;
44973;SDS011;60981;50.720;11.342;2024-01-07T01:32:01;8.90;;;5.45;;
44973;SDS011;60981;50.720;11.342;2024-01-07T01:33:05;9.13;;;5.90;;
44973;SDS011;60981;50.720;11.342;2024-01-07T01:34:09;7.88;;;5.30;;
44973;SDS011;60981;50.720;11.342;2024-01-07T01:35:12;10.23;;;6.35;;
44973;SDS011;60981;50.720;11.342;2024-01-07T01:38:11;11.50;;;6.53;;
44973;SDS011;60981;50.720;11.342;2024-01-07T01:39:13;7.85;;;4.85;;
44973;SDS011;60981;50.720;11.342;2024-01-07T01:40:16;12.10;;;5.90;;
44973;SDS011;60981;50.720;11.342;2024-01-07T01:41:19;14.90;;;6.03;;
44973;SDS011;60981;50.720;11.342;2024-01-07T01:42:21;12.30;;;6.32;;
44973;SDS011;60981;50.720;11.342;2024-01-07T01:43:27;10.63;;;6.50;;
44973;SDS011;60981;50.720;11.342;2024-01-07T01:44:30;14.95;;;4.75;;
44973;SDS011;60981;50.720;11.342;2024-01-07T01:45:33;9.57;;;5.30;;
44973;SDS011;60981;50.720;11.342;2024-01-07T01:46:35;8.40;;;5.05;;
44973;SDS011;60981;50.720;11.342;2024-01-07T01:47:37;7.90;;;5.28;;
44973;SDS011;60981;50.720;11.342;2024-01-07T01:48:40;9.38;;;5.30;;
44973;SDS011;60981;50.720;11.342;2024-01-07T01:49:44;10.10;;;6.25;;
44973;SDS011;60981;50.720;11.342;2024-01-07T01:50:48;8.77;;;5.45;;
44973;SDS011;60981;50.720;11.342;2024-01-07T01:51:53;14.13;;;6.43;;
44973;SDS011;60981;50.720;11.342;2024-01-07T01:52:55;11.82;;;5.93;;
44973;SDS011;60981;50.720;11.342;2024-01-07T01:53:57;12.25;;;6.50;;
44973;SDS011;60981;50.720;11.342;2024-01-07T01:55:01;12.63;;;6.50;;
44973;SDS011;60981;50.720;11.342;2024-01-07T01:56:05;11.07;;;5.93;;
44973;SDS011;60981;50.720;11.342;2024-01-07T01:57:09;16.48;;;6.38;;
44973;SDS011;60981;50.720;11.342;2024-01-07T01:58:15;9.88;;;5.75;;
44973;SDS011;60981;50.720;11.342;2024-01-07T01:59:22;11.85;;;6.30;;
44973;SDS011;60981;50.720;11.342;2024-01-07T02:00:23;11.38;;;6.15;;
44973;SDS011;60981;50.720;11.342;2024-01-07T02:01:25;8.10;;;5.75;;
44973;SDS011;60981;50.720;11.342;2024-01-07T02:02:30;10.93;;;6.07;;
44973;SDS011;60981;50.720;11.342;2024-01-07T02:03:34;11.88;;;6.20;;
44973;SDS011;60981;50.720;11.342;2024-01-07T02:04:36;8.60;;;5.63;;
44973;SDS011;60981;50.720;11.342;2024-01-07T02:05:39;8.05;;;5.53;;
44973;SDS011;60981;50.720;11.342;2024-01-07T02:06:44;11.20;;;6.50;;
44973;SDS011;60981;50.720;11.342;2024-01-07T02:07:50;11.95;;;5.78;;
44973;SDS011;60981;50.720;11.342;2024-01-07T02:08:56;10.75;;;5.32;;
44973;SDS011;60981;50.720;11.342;2024-01-07T02:09:59;10.88;;;6.45;;
44973;SDS011;60981;50.720;11.342;2024-01-07T02:12:18;10.95;;;6.28;;
44973;SDS011;60981;50.720;11.342;2024-01-07T02:13:21;9.52;;;5.97;;
44973;SDS011;60981;50.720;11.342;2024-01-07T02:14:25;8.30;;;5.88;;
44973;SDS011;60981;50.720;11.342;2024-01-07T02:15:28;8.57;;;5.75;;
44973;SDS011;60981;50.720;11.342;2024-01-07T02:16:31;8.32;;;4.93;;
44973;SDS011;60981;50.720;11.342;2024-01-07T02:19:31;9.93;;;6.15;;
44973;SDS011;60981;50.720;11.342;2024-01-07T02:20:37;10.07;;;5.60;;
44973;SDS011;60981;50.720;11.342;2024-01-07T02:21:40;12.18;;;6.80;;
44973;SDS011;60981;50.720;11.342;2024-01-07T02:22:42;10.32;;;5.95;;
44973;SDS011;60981;50.720;11.342;2024-01-07T02:23:44;11.60;;;6.28;;
44973;SDS011;60981;50.720;11.342;2024-01-07T02:24:47;9.57;;;5.72;;
44973;SDS011;60981;50.720;11.342;2024-01-07T02:25:51;10.50;;;5.75;;
44973;SDS011;60981;50.720;11.342;2024-01-07T02:26:53;12.23;;;3.75;;
44973;SDS011;60981;50.720;11.342;2024-01-07T02:28:00;10.77;;;4.22;;
44973;SDS011;60981;50.720;11.342;2024-01-07T02:29:03;10.63;;;5.07;;
44973;SDS011;60981;50.720;11.342;2024-01-07T02:30:05;8.07;;;5.72;;
44973;SDS011;60981;50.720;11.342;2024-01-07T02:31:09;9.05;;;5.07;;
44973;SDS011;60981;50.720;11.342;2024-01-07T02:32:12;9.10;;;5.32;;
44973;SDS011;60981;50.720;11.342;2024-01-07T02:33:17;10.05;;;4.95;;
44973;SDS011;60981;50.720;11.342;2024-01-07T02:34:19;7.10;;;3.97;;
44973;SDS011;60981;50.720;11.342;2024-01-07T02:35:22;16.20;;;6.07;;
44973;SDS011;60981;50.720;11.342;2024-01-07T02:36:25;8.50;;;5.10;;
44973;SDS011;60981;50.720;11.342;2024-01-07T02:37:29;5.50;;;4.28;;
44973;SDS011;60981;50.720;11.342;2024-01-07T02:38:33;8.48;;;4.57;;
44973;SDS011;60981;50.720;11.342;2024-01-07T02:39:36;8.48;;;5.20;;
44973;SDS011;60981;50.720;11.342;2024-01-07T02:40:40;10.32;;;5.05;;
44973;SDS011;60981;50.720;11.342;2024-01-07T02:41:45;11.38;;;5.32;;
44973;SDS011;60981;50.720;11.342;2024-01-07T02:42:47;11.20;;;5.55;;
44973;SDS011;60981;50.720;11.342;2024-01-07T02:43:52;6.70;;;4.22;;
44973;SDS011;60981;50.720;11.342;2024-01-07T02:44:54;8.30;;;4.88;;
44973;SDS011;60981;50.720;11.342;2024-01-07T02:45:55;9.30;;;5.05;;
44973;SDS011;60981;50.720;11.342;2024-01-07T02:46:58;9.65;;;5.25;;
44973;SDS011;60981;50.720;11.342;2024-01-07T02:48:04;7.63;;;4.72;;
44973;SDS011;60981;50.720;11.342;2024-01-07T02:49:09;10.20;;;4.95;;
44973;SDS011;60981;50.720;11.342;2024-01-07T02:50:18;9.00;;;5.63;;
44973;SDS011;60981;50.720;11.342;2024-01-07T02:51:23;6.05;;;4.40;;
44973;SDS011;60981;50.720;11.342;2024-01-07T02:52:26;9.57;;;4.68;;
44973;SDS011;60981;50.720;11.342;2024-01-07T02:53:28;6.15;;;3.72;;
44973;SDS011;60981;50.720;11.342;2024-01-07T02:54:31;8.00;;;5.18;;
44973;SDS011;60981;50.720;11.342;2024-01-07T02:55:34;7.93;;;5.30;;
44973;SDS011;60981;50.720;11.342;2024-01-07T02:56:37;7.20;;;4.72;;
44973;SDS011;60981;50.720;11.342;2024-01-07T02:57:39;11.38;;;5.63;;
44973;SDS011;60981;50.720;11.342;2024-01-07T02:58:42;6.07;;;3.85;;
44973;SDS011;60981;50.720;11.342;2024-01-07T02:59:46;7.90;;;5.13;;
44973;SDS011;60981;50.720;11.342;2024-01-07T03:00:47;9.15;;;4.70;;
44973;SDS011;60981;50.720;11.342;2024-01-07T03:01:51;9.05;;;4.97;;
44973;SDS011;60981;50.720;11.342;2024-01-07T03:02:52;8.02;;;4.30;;
44973;SDS011;60981;50.720;11.342;2024-01-07T03:03:54;6.85;;;4.13;;
44973;SDS011;60981;50.720;11.342;2024-01-07T03:04:58;7.60;;;4.25;;
44973;SDS011;60981;50.720;11.342;2024-01-07T03:06:02;8.55;;;5.50;;
44973;SDS011;60981;50.720;11.342;2024-01-07T03:07:10;6.72;;;4.20;;
44973;SDS011;60981;50.720;11.342;2024-01-07T03:08:13;7.65;;;4.88;;
44973;SDS011;60981;50.720;11.342;2024-01-07T03:10:38;9.48;;;4.38;;
44973;SDS011;60981;50.720;11.342;2024-01-07T03:11:41;7.22;;;3.17;;
44973;SDS011;60981;50.720;11.342;2024-01-07T03:12:44;7.80;;;4.47;;
44973;SDS011;60981;50.720;11.342;2024-01-07T03:13:47;7.88;;;4.95;;
44973;SDS011;60981;50.720;11.342;2024-01-07T03:14:50;6.68;;;4.32;;
44973;SDS011;60981;50.720;11.342;2024-01-07T03:15:55;12.88;;;4.97;;
44973;SDS011;60981;50.720;11.342;2024-01-07T03:16:56;9.63;;;5.00;;
44973;SDS011;60981;50.720;11.342;2024-01-07T03:17:58;6.85;;;4.50;;
44973;SDS011;60981;50.720;11.342;2024-01-07T03:19:02;8.07;;;4.28;;
44973;SDS011;60981;50.720;11.342;2024-01-07T03:20:09;6.20;;;4.05;;
44973;SDS011;60981;50.720;11.342;2024-01-07T03:21:20;8.82;;;4.32;;
44973;SDS011;60981;50.720;11.342;2024-01-07T03:22:25;8.70;;;5.38;;
44973;SDS011;60981;50.720;11.342;2024-01-07T03:23:31;7.65;;;4.20;;
44973;SDS011;60981;50.720;11.342;2024-01-07T03:24:42;11.27;;;5.75;;
44973;SDS011;60981;50.720;11.342;2024-01-07T03:25:45;5.28;;;3.60;;
44973;SDS011;60981;50.720;11.342;2024-01-07T03:26:47;6.20;;;4.10;;
44973;SDS011;60981;50.720;11.342;2024-01-07T03:27:50;9.43;;;5.95;;
44973;SDS011;60981;50.720;11.342;2024-01-07T03:28:54;13.40;;;5.57;;
44973;SDS011;60981;50.720;11.342;2024-01-07T03:29:56;7.20;;;5.43;;
44973;SDS011;60981;50.720;11.342;2024-01-07T03:30:59;9.30;;;4.63;;
44973;SDS011;60981;50.720;11.342;2024-01-07T03:32:18;5.40;;;3.40;;
44973;SDS011;60981;50.720;11.342;2024-01-07T03:33:20;7.57;;;3.50;;
44973;SDS011;60981;50.720;11.342;2024-01-07T03:34:24;6.05;;;2.10;;
44973;SDS011;60981;50.720;11.342;2024-01-07T03:37:10;2.67;;;1.90;;
44973;SDS011;60981;50.720;11.342;2024-01-07T03:38:15;5.70;;;2.57;;
44973;SDS011;60981;50.720;11.342;2024-01-07T03:39:16;3.88;;;2.30;;
44973;SDS011;60981;50.720;11.342;2024-01-07T03:40:19;5.45;;;3.08;;
44973;SDS011;60981;50.720;11.342;2024-01-07T03:41:22;5.88;;;2.65;;
44973;SDS011;60981;50.720;11.342;2024-01-07T03:42:27;4.05;;;2.03;;
44973;SDS011;60981;50.720;11.342;2024-01-07T03:43:32;3.75;;;2.05;;
44973;SDS011;60981;50.720;11.342;2024-01-07T03:44:34;5.50;;;2.42;;
44973;SDS011;60981;50.720;11.342;2024-01-07T03:45:39;3.38;;;1.75;;
44973;SDS011;60981;50.720;11.342;2024-01-07T03:46:41;6.43;;;3.27;;
44973;SDS011;60981;50.720;11.342;2024-01-07T03:47:46;8.63;;;3.60;;
44973;SDS011;60981;50.720;11.342;2024-01-07T03:48:48;7.70;;;3.25;;
44973;SDS011;60981;50.720;11.342;2024-01-07T03:49:59;4.10;;;2.28;;
44973;SDS011;60981;50.720;11.342;2024-01-07T03:51:02;3.53;;;2.22;;
44973;SDS011;60981;50.720;11.342;2024-01-07T03:52:10;4.60;;;2.22;;
44973;SDS011;60981;50.720;11.342;2024-01-07T03:53:12;6.78;;;2.97;;
44973;SDS011;60981;50.720;11.342;2024-01-07T03:54:14;5.82;;;3.10;;
44973;SDS011;60981;50.720;11.342;2024-01-07T03:55:17;5.43;;;3.45;;
44973;SDS011;60981;50.720;11.342;2024-01-07T03:56:20;6.15;;;3.22;;
44973;SDS011;60981;50.720;11.342;2024-01-07T03:57:22;4.45;;;2.45;;
44973;SDS011;60981;50.720;11.342;2024-01-07T03:58:26;3.45;;;2.22;;
44973;SDS011;60981;50.720;11.342;2024-01-07T03:59:30;5.13;;;3.17;;
44973;SDS011;60981;50.720;11.342;2024-01-07T04:00:35;5.05;;;2.42;;
44973;SDS011;60981;50.720;11.342;2024-01-07T04:01:39;4.88;;;2.80;;
44973;SDS011;60981;50.720;11.342;2024-01-07T04:02:43;3.90;;;2.67;;
44973;SDS011;60981;50.720;11.342;2024-01-07T04:03:47;5.13;;;2.55;;
44973;SDS011;60981;50.720;11.342;2024-01-07T04:04:53;7.97;;;2.88;;
44973;SDS011;60981;50.720;11.342;2024-01-07T04:05:55;4.00;;;2.08;;
44973;SDS011;60981;50.720;11.342;2024-01-07T04:08:41;4.68;;;2.60;;
44973;SDS011;60981;50.720;11.342;2024-01-07T04:09:45;6.00;;;2.90;;
44973;SDS011;60981;50.720;11.342;2024-01-07T04:10:48;2.88;;;1.90;;
44973;SDS011;60981;50.720;11.342;2024-01-07T04:11:51;7.78;;;3.35;;
44973;SDS011;60981;50.720;11.342;2024-01-07T04:12:57;2.95;;;1.92;;
44973;SDS011;60981;50.720;11.342;2024-01-07T04:14:00;3.88;;;2.63;;
44973;SDS011;60981;50.720;11.342;2024-01-07T04:15:03;5.38;;;2.55;;
44973;SDS011;60981;50.720;11.342;2024-01-07T04:16:15;5.00;;;2.28;;
44973;SDS011;60981;50.720;11.342;2024-01-07T04:17:16;4.10;;;2.30;;
44973;SDS011;60981;50.720;11.342;2024-01-07T04:18:20;3.97;;;2.08;;
44973;SDS011;60981;50.720;11.342;2024-01-07T04:19:24;4.45;;;1.90;;
44973;SDS011;60981;50.720;11.342;2024-01-07T04:20:27;4.20;;;2.58;;
44973;SDS011;60981;50.720;11.342;2024-01-07T04:21:34;8.18;;;2.38;;
44973;SDS011;60981;50.720;11.342;2024-01-07T04:22:37;4.57;;;2.33;;
44973;SDS011;60981;50.720;11.342;2024-01-07T04:23:42;4.43;;;2.05;;
44973;SDS011;60981;50.720;11.342;2024-01-07T04:24:45;3.45;;;2.03;;
44973;SDS011;60981;50.720;11.342;2024-01-07T04:25:50;3.22;;;1.73;;
44973;SDS011;60981;50.720;11.342;2024-01-07T04:26:53;4.03;;;2.22;;
44973;SDS011;60981;50.720;11.342;2024-01-07T04:28:00;3.72;;;2.40;;
44973;SDS011;60981;50.720;11.342;2024-01-07T04:29:08;2.13;;;1.55;;
44973;SDS011;60981;50.720;11.342;2024-01-07T04:30:11;3.42;;;2.00;;
44973;SDS011;60981;50.720;11.342;2024-01-07T04:31:14;5.80;;;3.10;;
44973;SDS011;60981;50.720;11.342;2024-01-07T04:32:16;6.55;;;2.33;;
44973;SDS011;60981;50.720;11.342;2024-01-07T04:33:22;5.28;;;2.70;;
44973;SDS011;60981;50.720;11.342;2024-01-07T04:34:28;5.50;;;2.20;;
44973;SDS011;60981;50.720;11.342;2024-01-07T04:35:31;3.70;;;2.15;;
44973;SDS011;60981;50.720;11.342;2024-01-07T04:36:32;3.72;;;2.47;;
44973;SDS011;60981;50.720;11.342;2024-01-07T04:37:35;13.60;;;2.70;;
44973;SDS011;60981;50.720;11.342;2024-01-07T04:38:39;6.72;;;2.33;;
44973;SDS011;60981;50.720;11.342;2024-01-07T04:39:42;2.80;;;2.05;;
44973;SDS011;60981;50.720;11.342;2024-01-07T04:40:47;4.55;;;2.45;;
44973;SDS011;60981;50.720;11.342;2024-01-07T04:41:52;2.55;;;1.75;;
44973;SDS011;60981;50.720;11.342;2024-01-07T04:42:54;6.93;;;3.03;;
44973;SDS011;60981;50.720;11.342;2024-01-07T04:43:57;3.30;;;1.70;;
44973;SDS011;60981;50.720;11.342;2024-01-07T04:45:00;3.05;;;1.92;;
44973;SDS011;60981;50.720;11.342;2024-01-07T04:46:04;4.72;;;2.40;;
44973;SDS011;60981;50.720;11.342;2024-01-07T04:47:27;4.80;;;1.70;;
44973;SDS011;60981;50.720;11.342;2024-01-07T04:48:31;4.15;;;2.22;;
44973;SDS011;60981;50.720;11.342;2024-01-07T04:49:35;4.63;;;2.42;;
44973;SDS011;60981;50.720;11.342;2024-01-07T04:50:39;3.30;;;1.88;;
44973;SDS011;60981;50.720;11.342;2024-01-07T04:51:42;6.20;;;2.77;;
44973;SDS011;60981;50.720;11.342;2024-01-07T04:52:46;3.60;;;2.05;;
44973;SDS011;60981;50.720;11.342;2024-01-07T04:56:00;3.90;;;2.35;;
44973;SDS011;60981;50.720;11.342;2024-01-07T04:57:01;4.70;;;2.63;;
44973;SDS011;60981;50.720;11.342;2024-01-07T04:58:04;4.63;;;1.63;;
44973;SDS011;60981;50.720;11.342;2024-01-07T04:59:07;5.97;;;2.80;;
44973;SDS011;60981;50.720;11.342;2024-01-07T05:00:09;4.70;;;2.15;;
44973;SDS011;60981;50.720;11.342;2024-01-07T05:01:11;6.28;;;3.17;;
44973;SDS011;60981;50.720;11.342;2024-01-07T05:02:14;4.43;;;2.10;;
44973;SDS011;60981;50.720;11.342;2024-01-07T05:03:17;3.78;;;1.98;;
44973;SDS011;60981;50.720;11.342;2024-01-07T05:04:19;3.33;;;2.25;;
44973;SDS011;60981;50.720;11.342;2024-01-07T05:05:20;4.78;;;2.08;;
44973;SDS011;60981;50.720;11.342;2024-01-07T05:06:25;5.40;;;2.53;;
44973;SDS011;60981;50.720;11.342;2024-01-07T05:07:28;2.63;;;1.75;;
44973;SDS011;60981;50.720;11.342;2024-01-07T05:08:33;2.83;;;1.90;;
44973;SDS011;60981;50.720;11.342;2024-01-07T05:09:38;3.05;;;1.40;;
44973;SDS011;60981;50.720;11.342;2024-01-07T05:10:40;6.60;;;2.63;;
44973;SDS011;60981;50.720;11.342;2024-01-07T05:11:43;3.70;;;2.08;;
44973;SDS011;60981;50.720;11.342;2024-01-07T05:12:46;4.57;;;2.63;;
44973;SDS011;60981;50.720;11.342;2024-01-07T05:13:48;6.28;;;2.13;;
44973;SDS011;60981;50.720;11.342;2024-01-07T05:14:56;3.03;;;1.90;;
44973;SDS011;60981;50.720;11.342;2024-01-07T05:15:58;5.07;;;2.80;;
44973;SDS011;60981;50.720;11.342;2024-01-07T05:17:00;2.90;;;1.80;;
44973;SDS011;60981;50.720;11.342;2024-01-07T05:18:08;6.57;;;2.17;;
44973;SDS011;60981;50.720;11.342;2024-01-07T05:19:19;3.45;;;2.20;;
44973;SDS011;60981;50.720;11.342;2024-01-07T05:20:22;3.58;;;1.70;;
44973;SDS011;60981;50.720;11.342;2024-01-07T05:21:25;4.07;;;2.20;;
44973;SDS011;60981;50.720;11.342;2024-01-07T05:22:30;2.83;;;1.40;;
44973;SDS011;60981;50.720;11.342;2024-01-07T05:23:34;5.35;;;2.20;;
44973;SDS011;60981;50.720;11.342;2024-01-07T05:24:38;2.60;;;1.77;;
44973;SDS011;60981;50.720;11.342;2024-01-07T05:25:44;7.20;;;2.53;;
44973;SDS011;60981;50.720;11.342;2024-01-07T05:26:50;3.75;;;2.28;;
44973;SDS011;60981;50.720;11.342;2024-01-07T05:27:53;6.32;;;2.50;;
44973;SDS011;60981;50.720;11.342;2024-01-07T05:28:55;3.78;;;2.80;;
44973;SDS011;60981;50.720;11.342;2024-01-07T05:29:58;4.03;;;2.63;;
44973;SDS011;60981;50.720;11.342;2024-01-07T05:31:04;3.20;;;2.00;;
44973;SDS011;60981;50.720;11.342;2024-01-07T05:32:07;14.57;;;3.75;;
44973;SDS011;60981;50.720;11.342;2024-01-07T05:33:11;5.82;;;2.63;;
44973;SDS011;60981;50.720;11.342;2024-01-07T05:34:13;5.43;;;2.42;;
44973;SDS011;60981;50.720;11.342;2024-01-07T05:37:19;6.38;;;3.65;;
44973;SDS011;60981;50.720;11.342;2024-01-07T05:38:26;4.88;;;2.90;;
44973;SDS011;60981;50.720;11.342;2024-01-07T05:39:34;5.00;;;3.10;;
44973;SDS011;60981;50.720;11.342;2024-01-07T05:40:36;4.53;;;2.55;;
44973;SDS011;60981;50.720;11.342;2024-01-07T05:41:37;8.07;;;3.80;;
44973;SDS011;60981;50.720;11.342;2024-01-07T05:42:41;5.45;;;3.65;;
44973;SDS011;60981;50.720;11.342;2024-01-07T05:43:42;6.93;;;3.70;;
44973;SDS011;60981;50.720;11.342;2024-01-07T05:44:45;4.32;;;2.88;;
44973;SDS011;60981;50.720;11.342;2024-01-07T05:45:49;6.10;;;3.13;;
44973;SDS011;60981;50.720;11.342;2024-01-07T05:46:51;4.22;;;3.20;;
44973;SDS011;60981;50.720;11.342;2024-01-07T05:47:53;5.53;;;2.83;;
44973;SDS011;60981;50.720;11.342;2024-01-07T05:48:56;4.90;;;2.67;;
44973;SDS011;60981;50.720;11.342;2024-01-07T05:49:59;3.85;;;2.47;;
44973;SDS011;60981;50.720;11.342;2024-01-07T05:51:01;4.38;;;2.55;;
44973;SDS011;60981;50.720;11.342;2024-01-07T05:52:06;5.20;;;2.60;;
44973;SDS011;60981;50.720;11.342;2024-01-07T05:53:11;6.43;;;2.70;;
44973;SDS011;60981;50.720;11.342;2024-01-07T05:54:16;4.22;;;2.45;;
44973;SDS011;60981;50.720;11.342;2024-01-07T05:55:17;4.30;;;2.85;;
44973;SDS011;60981;50.720;11.342;2024-01-07T05:56:19;6.28;;;2.90;;
44973;SDS011;60981;50.720;11.342;2024-01-07T05:57:21;5.30;;;3.63;;
44973;SDS011;60981;50.720;11.342;2024-01-07T05:58:26;14.25;;;3.03;;
44973;SDS011;60981;50.720;11.342;2024-01-07T05:59:31;7.15;;;2.95;;
44973;SDS011;60981;50.720;11.342;2024-01-07T06:00:35;9.00;;;2.92;;
44973;SDS011;60981;50.720;11.342;2024-01-07T06:01:38;5.40;;;2.88;;
44973;SDS011;60981;50.720;11.342;2024-01-07T06:02:45;7.07;;;3.42;;
44973;SDS011;60981;50.720;11.342;2024-01-07T06:03:47;4.93;;;2.80;;
44973;SDS011;60981;50.720;11.342;2024-01-07T06:04:55;8.32;;;3.83;;
44973;SDS011;60981;50.720;11.342;2024-01-07T06:05:58;9.48;;;3.70;;
44973;SDS011;60981;50.720;11.342;2024-01-07T06:07:02;7.70;;;4.00;;
44973;SDS011;60981;50.720;11.342;2024-01-07T06:08:08;9.07;;;4.63;;
44973;SDS011;60981;50.720;11.342;2024-01-07T06:09:11;5.60;;;3.10;;
44973;SDS011;60981;50.720;11.342;2024-01-07T06:10:16;7.50;;;3.95;;
44973;SDS011;60981;50.720;11.342;2024-01-07T06:11:19;6.25;;;3.38;;
44973;SDS011;60981;50.720;11.342;2024-01-07T06:12:25;9.07;;;4.60;;
44973;SDS011;60981;50.720;11.342;2024-01-07T06:13:44;4.95;;;2.95;;
44973;SDS011;60981;50.720;11.342;2024-01-07T06:14:47;4.80;;;2.97;;
44973;SDS011;60981;50.720;11.342;2024-01-07T06:15:49;5.63;;;3.42;;
44973;SDS011;60981;50.720;11.342;2024-01-07T06:16:53;8.20;;;3.25;;
44973;SDS011;60981;50.720;11.342;2024-01-07T06:17:56;7.05;;;4.15;;
44973;SDS011;60981;50.720;11.342;2024-01-07T06:18:59;7.60;;;4.05;;
44973;SDS011;60981;50.720;11.342;2024-01-07T06:20:05;5.03;;;2.90;;
44973;SDS011;60981;50.720;11.342;2024-01-07T06:21:08;4.72;;;2.88;;
44973;SDS011;60981;50.720;11.342;2024-01-07T06:22:11;8.15;;;4.65;;
44973;SDS011;60981;50.720;11.342;2024-01-07T06:23:17;8.95;;;3.97;;
44973;SDS011;60981;50.720;11.342;2024-01-07T06:24:20;6.65;;;3.90;;
44973;SDS011;60981;50.720;11.342;2024-01-07T06:25:21;4.57;;;3.30;;
44973;SDS011;60981;50.720;11.342;2024-01-07T06:26:31;7.57;;;3.67;;
44973;SDS011;60981;50.720;11.342;2024-01-07T06:27:34;4.68;;;3.22;;
44973;SDS011;60981;50.720;11.342;2024-01-07T06:28:38;5.03;;;3.10;;
44973;SDS011;60981;50.720;11.342;2024-01-07T06:29:41;8.18;;;3.55;;
44973;SDS011;60981;50.720;11.342;2024-01-07T06:30:42;5.18;;;2.70;;
44973;SDS011;60981;50.720;11.342;2024-01-07T06:31:46;5.65;;;3.63;;
44973;SDS011;60981;50.720;11.342;2024-01-07T06:32:52;9.45;;;3.83;;
44973;SDS011;60981;50.720;11.342;2024-01-07T06:33:55;14.98;;;3.60;;
44973;SDS011;60981;50.720;11.342;2024-01-07T06:34:59;7.32;;;4.13;;